createdAt,value
2019-01-04T00:00:27.899Z,4.50
2019-01-04T00:02:56.348Z,4.97
2019-01-04T00:05:24.890Z,4.73
2019-01-04T00:07:53.429Z,5.20
2019-01-04T00:10:21.857Z,4.37
2019-01-04T00:12:50.276Z,5.60
2019-01-04T00:15:18.714Z,5.37
2019-01-04T00:17:47.180Z,5.90
2019-01-04T00:20:15.593Z,5.27
2019-01-04T00:22:44.024Z,5.47
2019-01-04T00:25:12.491Z,5.17
2019-01-04T00:27:40.912Z,4.87
2019-01-04T00:30:11.584Z,5.83
2019-01-04T00:32:40.026Z,4.90
2019-01-04T00:35:08.668Z,5.30
2019-01-04T00:37:37.184Z,5.13
2019-01-04T00:40:07.952Z,5.70
2019-01-04T00:42:36.425Z,5.50
2019-01-04T00:45:06.541Z,5.80
2019-01-04T00:47:35.068Z,6.40
2019-01-04T00:50:05.951Z,6.40
2019-01-04T00:52:34.386Z,6.20
2019-01-04T00:55:08.692Z,5.60
2019-01-04T00:57:40.207Z,6.40
2019-01-04T01:00:44.855Z,6.07
2019-01-04T01:03:32.507Z,6.17
2019-01-04T01:06:12.535Z,5.67
2019-01-04T01:08:44.191Z,6.43
2019-01-04T01:11:40.900Z,6.17
2019-01-04T01:14:33.317Z,6.23
2019-01-04T01:17:34.843Z,6.33
2019-01-04T01:20:22.746Z,6.60
2019-01-04T01:23:16.727Z,6.23
2019-01-04T01:26:16.864Z,6.83
2019-01-04T01:29:10.555Z,6.90
2019-01-04T01:32:00.119Z,6.60
2019-01-04T01:34:31.615Z,6.57
2019-01-04T01:37:08.854Z,6.87
2019-01-04T01:39:49.029Z,7.10
2019-01-04T01:42:29.270Z,7.30
2019-01-04T01:45:32.031Z,6.70
2019-01-04T01:48:00.715Z,7.50
2019-01-04T01:50:35.086Z,6.70
2019-01-04T01:53:03.544Z,6.60
2019-01-04T01:55:32.042Z,7.30
2019-01-04T01:58:00.483Z,6.27
2019-01-04T02:00:28.980Z,6.40
2019-01-04T02:02:57.497Z,6.80
2019-01-04T02:05:25.920Z,6.90
2019-01-04T02:07:54.421Z,6.13
2019-01-04T02:10:22.868Z,6.70
2019-01-04T02:12:51.286Z,6.17
2019-01-04T02:15:19.737Z,8.17
2019-01-04T02:17:48.171Z,6.40
2019-01-04T02:20:16.619Z,7.07
2019-01-04T02:22:45.040Z,7.70
2019-01-04T02:25:13.826Z,6.50
2019-01-04T02:27:42.241Z,6.10
2019-01-04T02:30:10.696Z,6.87
2019-01-04T02:32:39.110Z,7.27
2019-01-04T02:35:07.883Z,6.63
2019-01-04T02:37:36.348Z,6.10
2019-01-04T02:40:04.934Z,6.00
2019-01-04T02:42:33.382Z,6.20
2019-01-04T02:45:01.870Z,5.97
2019-01-04T02:47:30.315Z,6.00
2019-01-04T02:49:58.738Z,5.93
2019-01-04T02:52:27.191Z,6.67
2019-01-04T02:54:56.019Z,5.77
2019-01-04T02:57:24.753Z,6.10
2019-01-04T02:59:53.245Z,6.30
2019-01-04T03:02:21.667Z,6.27
2019-01-04T03:04:50.102Z,5.77
2019-01-04T03:07:18.554Z,5.50
2019-01-04T03:09:46.971Z,6.37
2019-01-04T03:12:15.416Z,4.93
2019-01-04T03:14:43.901Z,5.07
2019-01-04T03:17:12.335Z,4.43
2019-01-04T03:19:40.762Z,4.90
2019-01-04T03:22:09.208Z,5.40
2019-01-04T03:24:37.654Z,5.73
2019-01-04T03:27:06.180Z,5.23
2019-01-04T03:29:34.598Z,5.07
2019-01-04T03:32:03.043Z,5.17
2019-01-04T03:34:31.473Z,5.17
2019-01-04T03:36:59.915Z,6.03
2019-01-04T03:39:28.342Z,5.10
2019-01-04T03:41:56.792Z,5.57
2019-01-04T03:44:25.235Z,6.30
2019-01-04T03:46:53.669Z,6.13
2019-01-04T03:49:22.105Z,6.27
2019-01-04T03:51:50.631Z,6.97
2019-01-04T03:54:19.230Z,6.50
2019-01-04T03:56:47.652Z,5.57
2019-01-04T03:59:16.103Z,6.07
2019-01-04T04:01:44.515Z,5.73
2019-01-04T04:04:13.020Z,6.60
2019-01-04T04:06:41.544Z,6.77
2019-01-04T04:09:09.958Z,5.00
2019-01-04T04:11:38.415Z,5.40
2019-01-04T04:14:06.890Z,6.40
2019-01-04T04:16:35.320Z,6.10
2019-01-04T04:19:03.770Z,6.27
2019-01-04T04:21:32.196Z,7.10
2019-01-04T04:24:00.632Z,6.87
2019-01-04T04:26:29.072Z,6.00
2019-01-04T04:28:57.494Z,7.07
2019-01-04T04:31:25.936Z,4.47
2019-01-04T04:33:54.371Z,6.37
2019-01-04T04:36:22.792Z,6.23
2019-01-04T04:38:51.236Z,5.83
2019-01-04T04:41:19.671Z,7.03
2019-01-04T04:43:48.099Z,4.93
2019-01-04T04:46:16.543Z,7.07
2019-01-04T04:48:44.958Z,7.60
2019-01-04T04:51:13.413Z,7.10
2019-01-04T04:53:41.832Z,7.33
2019-01-04T04:56:10.283Z,7.50
2019-01-04T04:58:38.698Z,7.03
2019-01-04T05:01:07.236Z,3.60
2019-01-04T05:03:35.731Z,6.80
2019-01-04T05:06:04.147Z,7.60
2019-01-04T05:08:32.608Z,6.70
2019-01-04T05:11:01.035Z,6.43
2019-01-04T05:13:29.518Z,6.53
2019-01-04T05:15:57.961Z,5.93
2019-01-04T05:18:26.415Z,6.20
2019-01-04T05:20:54.841Z,7.07
2019-01-04T05:23:23.283Z,7.10
2019-01-04T05:25:51.737Z,7.93
2019-01-04T05:28:20.150Z,8.27
2019-01-04T05:30:48.608Z,8.10
2019-01-04T05:33:17.060Z,8.90
2019-01-04T05:35:45.584Z,6.27
2019-01-04T05:38:14.027Z,8.67
2019-01-04T05:40:42.476Z,8.53
2019-01-04T05:43:10.887Z,7.70
2019-01-04T05:45:39.304Z,5.83
2019-01-04T05:48:07.744Z,6.93
2019-01-04T05:50:36.192Z,7.67
2019-01-04T05:53:04.630Z,8.17
2019-01-04T05:55:33.155Z,7.73
2019-01-04T05:58:01.598Z,7.53
2019-01-04T06:00:30.017Z,8.60
2019-01-04T06:02:58.440Z,8.97
2019-01-04T06:05:26.977Z,8.77
2019-01-04T06:07:55.400Z,7.60
2019-01-04T06:10:23.820Z,9.13
2019-01-04T06:12:52.266Z,10.70
2019-01-04T06:15:20.710Z,10.07
2019-01-04T06:17:49.142Z,8.17
2019-01-04T06:20:17.567Z,9.00
2019-01-04T06:22:46.012Z,10.43
2019-01-04T06:25:14.448Z,11.37
2019-01-04T06:27:44.166Z,9.93
2019-01-04T06:30:12.720Z,10.47
2019-01-04T06:32:41.131Z,8.33
2019-01-04T06:35:09.584Z,9.00
2019-01-04T06:37:38.007Z,10.20
2019-01-04T06:40:08.932Z,9.70
2019-01-04T06:42:37.375Z,9.63
2019-01-04T06:45:07.341Z,9.97
2019-01-04T06:47:36.594Z,11.90
2019-01-04T06:50:07.458Z,13.23
2019-01-04T06:52:35.914Z,11.97
2019-01-04T06:55:19.083Z,12.80
2019-01-04T06:57:47.530Z,11.53
2019-01-04T07:00:16.019Z,13.30
2019-01-04T07:02:44.468Z,12.27
2019-01-04T07:05:12.896Z,12.00
2019-01-04T07:07:41.337Z,11.27
2019-01-04T07:10:10.134Z,13.03
2019-01-04T07:12:38.587Z,10.43
2019-01-04T07:15:07.355Z,11.90
2019-01-04T07:17:35.812Z,9.47
2019-01-04T07:20:05.341Z,10.50
2019-01-04T07:22:33.795Z,12.57
2019-01-04T07:25:02.215Z,10.50
2019-01-04T07:27:30.697Z,8.70
2019-01-04T07:29:59.186Z,12.50
2019-01-04T07:32:27.765Z,13.43
2019-01-04T07:34:56.242Z,12.53
2019-01-04T07:37:24.692Z,13.07
2019-01-04T07:39:53.392Z,11.90
2019-01-04T07:42:21.911Z,10.27
2019-01-04T07:44:50.374Z,12.27
2019-01-04T07:47:18.807Z,13.13
2019-01-04T07:49:47.345Z,12.53
2019-01-04T07:52:15.763Z,14.70
2019-01-04T07:54:44.678Z,14.00
2019-01-04T07:57:13.151Z,12.37
2019-01-04T07:59:41.631Z,9.47
2019-01-04T08:02:36.283Z,13.20
2019-01-04T08:05:07.810Z,11.77
2019-01-04T08:07:36.242Z,13.20
2019-01-04T08:10:06.931Z,11.33
2019-01-04T08:12:35.411Z,10.47
2019-01-04T08:15:07.124Z,12.60
2019-01-04T08:17:35.543Z,11.97
2019-01-04T08:20:05.607Z,13.50
2019-01-04T08:22:34.067Z,13.93
2019-01-04T08:25:02.579Z,13.63
2019-01-04T08:27:31.031Z,10.63
2019-01-04T08:29:59.522Z,8.03
2019-01-04T08:32:27.968Z,12.10
2019-01-04T08:34:56.420Z,9.77
2019-01-04T08:37:24.868Z,11.90
2019-01-04T08:39:53.289Z,11.33
2019-01-04T08:42:21.890Z,10.00
2019-01-04T08:44:50.322Z,10.23
2019-01-04T08:47:18.760Z,12.27
2019-01-04T08:49:47.179Z,10.37
2019-01-04T08:52:15.698Z,10.50
2019-01-04T08:54:44.182Z,11.17
2019-01-04T08:57:12.662Z,12.40
2019-01-04T08:59:41.147Z,11.30
2019-01-04T09:02:09.734Z,11.60
2019-01-04T09:04:38.197Z,10.27
2019-01-04T09:07:06.683Z,10.07
2019-01-04T09:09:35.090Z,9.67
2019-01-04T09:12:03.580Z,10.87
2019-01-04T09:14:32.025Z,8.07
2019-01-04T09:17:00.441Z,6.27
2019-01-04T09:19:29.090Z,9.17
2019-01-04T09:21:57.567Z,9.20
2019-01-04T09:24:26.021Z,9.60
2019-01-04T09:26:54.431Z,8.80
2019-01-04T09:29:22.880Z,8.70
2019-01-04T09:31:51.339Z,10.33
2019-01-04T09:34:19.774Z,7.73
2019-01-04T09:36:48.216Z,10.63
2019-01-04T09:39:16.672Z,11.97
2019-01-04T09:41:45.969Z,9.37
2019-01-04T09:44:14.387Z,8.17
2019-01-04T09:46:42.835Z,10.37
2019-01-04T09:49:11.238Z,4.03
2019-01-04T09:51:39.741Z,10.27
2019-01-04T09:54:08.200Z,7.07
2019-01-04T09:56:36.635Z,6.27
2019-01-04T09:59:05.056Z,10.83
2019-01-04T10:01:33.507Z,8.10
2019-01-04T10:04:01.927Z,10.07
2019-01-04T10:06:30.388Z,9.70
2019-01-04T10:08:58.809Z,11.70
2019-01-04T10:11:27.256Z,9.60
2019-01-04T10:13:55.804Z,11.10
2019-01-04T10:16:24.228Z,11.27
2019-01-04T10:18:52.674Z,8.50
2019-01-04T10:21:21.094Z,7.07
2019-01-04T10:23:49.793Z,8.07
2019-01-04T10:26:18.281Z,8.73
2019-01-04T10:28:49.522Z,6.63
2019-01-04T10:31:18.020Z,7.90
2019-01-04T10:33:46.476Z,12.70
2019-01-04T10:36:14.882Z,8.03
2019-01-04T10:38:43.319Z,9.43
2019-01-04T10:41:11.768Z,5.60
2019-01-04T10:43:40.194Z,7.57
2019-01-04T10:46:08.623Z,8.87
2019-01-04T10:48:37.043Z,11.10
2019-01-04T10:51:05.485Z,12.20
2019-01-04T10:53:33.898Z,11.37
2019-01-04T10:56:02.359Z,9.43
2019-01-04T10:58:30.950Z,8.63
2019-01-04T11:00:59.415Z,8.47
2019-01-04T11:03:27.866Z,7.43
2019-01-04T11:05:56.307Z,12.50
2019-01-04T11:08:24.760Z,14.93
2019-01-04T11:10:53.185Z,13.77
2019-01-04T11:13:21.631Z,8.27
2019-01-04T11:15:50.055Z,13.73
2019-01-04T11:18:18.505Z,16.50
2019-01-04T11:20:46.971Z,11.97
2019-01-04T11:23:48.576Z,11.30
2019-01-04T11:26:31.878Z,21.80
2019-01-04T11:29:06.051Z,9.77
2019-01-04T11:31:37.549Z,20.90
2019-01-04T11:34:20.930Z,14.20
2019-01-04T11:36:58.202Z,12.80
2019-01-04T11:39:29.792Z,17.20
2019-01-04T11:42:18.978Z,17.57
2019-01-04T11:44:50.503Z,15.63
2019-01-04T11:47:24.717Z,16.70
2019-01-04T11:49:56.210Z,18.43
2019-01-04T11:52:31.155Z,19.83
2019-01-04T11:54:58.308Z,18.47
2019-01-04T11:57:26.727Z,11.23
2019-01-04T11:59:55.181Z,23.70
2019-01-04T12:02:26.405Z,13.00
2019-01-04T12:04:53.855Z,14.33
2019-01-04T12:07:22.281Z,19.40
2019-01-04T12:09:50.731Z,18.30
2019-01-04T12:12:19.157Z,11.97
2019-01-04T12:14:47.607Z,16.47
2019-01-04T12:17:16.027Z,13.17
2019-01-04T12:19:44.475Z,18.70
2019-01-04T12:22:12.904Z,11.87
2019-01-04T12:24:41.399Z,17.80
2019-01-04T12:27:12.540Z,12.70
2019-01-04T12:29:40.958Z,20.37
2019-01-04T12:32:09.402Z,12.10
2019-01-04T12:34:37.851Z,9.67
2019-01-04T12:37:06.423Z,9.37
2019-01-04T12:39:34.881Z,16.57
2019-01-04T12:42:03.436Z,9.13
2019-01-04T12:44:31.879Z,7.43
2019-01-04T12:47:00.299Z,14.10
2019-01-04T12:49:28.786Z,13.93
2019-01-04T12:51:57.260Z,7.73
2019-01-04T12:54:25.699Z,11.33
2019-01-04T12:56:54.111Z,6.93
2019-01-04T12:59:22.568Z,10.77
2019-01-04T13:01:51.030Z,10.93
2019-01-04T13:04:19.436Z,8.43
2019-01-04T13:06:47.887Z,13.43
2019-01-04T13:09:16.308Z,8.97
2019-01-04T13:11:44.783Z,12.10
2019-01-04T13:14:13.261Z,10.63
2019-01-04T13:16:41.720Z,11.83
2019-01-04T13:19:10.240Z,5.20
2019-01-04T13:21:38.688Z,9.70
2019-01-04T13:24:07.386Z,9.57
2019-01-04T13:26:35.853Z,10.57
2019-01-04T13:29:04.290Z,7.37
2019-01-04T13:31:32.747Z,8.83
2019-01-04T13:34:01.186Z,9.13
2019-01-04T13:36:29.720Z,10.17
2019-01-04T13:38:58.154Z,6.70
2019-01-04T13:41:26.595Z,7.73
2019-01-04T13:43:57.882Z,10.67
2019-01-04T13:46:26.376Z,8.23
2019-01-04T13:48:54.791Z,7.73
2019-01-04T13:51:23.211Z,7.17
2019-01-04T13:53:51.667Z,9.27
2019-01-04T13:56:20.096Z,10.30
2019-01-04T13:58:48.544Z,7.70
2019-01-04T14:01:16.984Z,7.10
2019-01-04T14:03:45.416Z,5.23
2019-01-04T14:06:13.843Z,3.83
2019-01-04T14:08:42.282Z,5.17
2019-01-04T14:11:10.704Z,5.77
2019-01-04T14:13:39.144Z,3.73
2019-01-04T14:16:07.559Z,7.27
2019-01-04T14:18:36.015Z,7.07
2019-01-04T14:21:04.432Z,6.43
2019-01-04T14:23:32.854Z,4.80
2019-01-04T14:26:01.307Z,2.40
2019-01-04T14:28:29.805Z,4.57
2019-01-04T14:30:58.342Z,6.20
2019-01-04T14:33:26.752Z,6.10
2019-01-04T14:35:55.209Z,6.03
2019-01-04T14:38:23.654Z,6.20
2019-01-04T14:40:52.073Z,5.00
2019-01-04T14:43:20.519Z,7.07
2019-01-04T14:45:49.013Z,5.40
2019-01-04T14:48:17.455Z,2.93
2019-01-04T14:50:45.876Z,6.27
2019-01-04T14:53:14.312Z,7.43
2019-01-04T14:55:42.771Z,5.37
2019-01-04T14:58:11.190Z,8.53
2019-01-04T15:00:39.633Z,8.30
2019-01-04T15:03:08.048Z,3.90
2019-01-04T15:05:37.439Z,8.97
2019-01-04T15:08:05.888Z,6.37
2019-01-04T15:10:34.311Z,8.67
2019-01-04T15:13:02.757Z,7.40
2019-01-04T15:15:31.172Z,8.67
2019-01-04T15:17:59.735Z,11.07
2019-01-04T15:20:28.158Z,9.23
2019-01-04T15:22:56.599Z,8.97
2019-01-04T15:25:25.011Z,6.83
2019-01-04T15:27:53.461Z,5.67
2019-01-04T15:30:21.892Z,7.73
2019-01-04T15:32:50.311Z,10.20
2019-01-04T15:35:18.808Z,9.80
2019-01-04T15:37:47.254Z,6.00
2019-01-04T15:40:15.699Z,7.27
2019-01-04T15:42:44.147Z,5.23
2019-01-04T15:45:12.569Z,8.50
2019-01-04T15:47:41.011Z,9.47
2019-01-04T15:50:09.689Z,6.03
2019-01-04T15:52:38.187Z,11.97
2019-01-04T15:55:06.638Z,5.90
2019-01-04T15:57:35.051Z,11.10
2019-01-04T16:00:04.188Z,11.73
2019-01-04T16:02:32.678Z,8.67
2019-01-04T16:05:01.231Z,10.83
2019-01-04T16:07:29.654Z,11.40
2019-01-04T16:09:58.082Z,13.17
2019-01-04T16:12:26.519Z,8.33
2019-01-04T16:14:54.938Z,11.67
2019-01-04T16:17:23.384Z,9.83
2019-01-04T16:19:51.812Z,13.33
2019-01-04T16:22:20.291Z,11.53
2019-01-04T16:24:48.820Z,15.77
2019-01-04T16:27:17.275Z,12.43
2019-01-04T16:29:45.724Z,12.37
2019-01-04T16:32:14.142Z,16.43
2019-01-04T16:34:42.591Z,12.30
2019-01-04T16:37:11.040Z,21.70
2019-01-04T16:39:39.484Z,10.63
2019-01-04T16:42:07.907Z,20.97
2019-01-04T16:44:36.344Z,9.63
2019-01-04T16:47:04.767Z,9.83
2019-01-04T16:49:34.927Z,18.70
2019-01-04T16:52:03.344Z,21.20
2019-01-04T16:54:31.798Z,24.37
2019-01-04T16:57:00.223Z,16.67
2019-01-04T16:59:28.671Z,20.80
2019-01-04T17:01:57.092Z,13.73
2019-01-04T17:04:25.531Z,14.83
2019-01-04T17:06:53.953Z,18.97
2019-01-04T17:09:22.479Z,12.47
2019-01-04T17:11:50.921Z,18.30
2019-01-04T17:14:19.367Z,10.90
2019-01-04T17:16:47.790Z,9.37
2019-01-04T17:19:16.248Z,19.13
2019-01-04T17:21:44.678Z,13.10
2019-01-04T17:24:13.104Z,15.40
2019-01-04T17:26:41.563Z,12.50
2019-01-04T17:29:10.003Z,14.83
2019-01-04T17:31:38.504Z,18.83
2019-01-04T17:34:06.960Z,14.30
2019-01-04T17:36:35.384Z,15.10
2019-01-04T17:39:05.376Z,22.10
2019-01-04T17:41:33.799Z,14.70
2019-01-04T17:44:02.321Z,18.53
2019-01-04T17:46:30.768Z,19.57
2019-01-04T17:48:59.394Z,20.30
2019-01-04T17:51:27.852Z,11.70
2019-01-04T17:53:56.271Z,15.33
2019-01-04T17:56:24.730Z,19.43
2019-01-04T17:58:53.170Z,22.13
2019-01-04T18:01:21.702Z,18.50
2019-01-04T18:03:50.159Z,21.73
2019-01-04T18:06:18.592Z,19.87
2019-01-04T18:08:47.059Z,12.40
2019-01-04T18:11:15.491Z,15.93
2019-01-04T18:13:43.919Z,21.13
2019-01-04T18:16:12.387Z,19.77
2019-01-04T18:18:40.804Z,17.47
2019-01-04T18:21:09.255Z,22.30
2019-01-04T18:23:37.675Z,20.27
2019-01-04T18:26:06.169Z,24.17
2019-01-04T18:28:34.620Z,25.80
2019-01-04T18:31:03.104Z,20.97
2019-01-04T18:33:31.584Z,19.23
2019-01-04T18:36:00.023Z,23.17
2019-01-04T18:38:28.440Z,22.70
2019-01-04T18:40:56.896Z,11.77
2019-01-04T18:43:25.311Z,22.43
2019-01-04T18:45:53.759Z,23.30
2019-01-04T18:48:22.199Z,19.40
2019-01-04T18:50:51.519Z,27.43
2019-01-04T18:53:19.978Z,20.20
2019-01-04T18:55:48.408Z,16.73
2019-01-04T18:58:16.860Z,23.80
2019-01-04T19:00:45.283Z,21.77
2019-01-04T19:03:13.751Z,12.47
2019-01-04T19:05:42.280Z,21.67
2019-01-04T19:08:10.728Z,14.77
2019-01-04T19:10:39.161Z,23.73
2019-01-04T19:13:07.607Z,22.53
2019-01-04T19:15:36.055Z,16.90
2019-01-04T19:18:04.735Z,22.87
2019-01-04T19:20:33.174Z,19.90
2019-01-04T19:23:01.596Z,22.10
2019-01-04T19:25:30.461Z,18.03
2019-01-04T19:27:58.899Z,22.93
2019-01-04T19:30:27.376Z,20.90
2019-01-04T19:32:55.803Z,19.10
2019-01-04T19:35:24.231Z,13.00
2019-01-04T19:37:52.676Z,21.40
2019-01-04T19:40:21.134Z,19.13
2019-01-04T19:42:49.556Z,21.87
2019-01-04T19:45:18.028Z,22.67
2019-01-04T19:47:46.439Z,18.47
2019-01-04T19:50:17.792Z,16.60
2019-01-04T19:52:46.308Z,16.40
2019-01-04T19:55:14.741Z,21.47
2019-01-04T19:57:43.204Z,21.23
2019-01-04T20:00:12.059Z,23.47
2019-01-04T20:02:40.511Z,12.03
2019-01-04T20:05:08.999Z,9.57
2019-01-04T20:07:53.468Z,12.47
2019-01-04T20:11:17.299Z,8.37
2019-01-04T20:14:20.855Z,16.17
2019-01-04T20:17:09.457Z,13.73
2019-01-04T20:19:43.159Z,8.60
2019-01-04T20:22:22.211Z,13.70
2019-01-04T20:25:08.402Z,10.10
2019-01-04T20:27:44.723Z,11.60
2019-01-04T20:30:24.245Z,18.97
2019-01-04T20:33:11.695Z,17.97
2019-01-04T20:35:41.955Z,15.67
2019-01-04T20:38:18.083Z,14.03
2019-01-04T20:40:48.146Z,20.10
2019-01-04T20:43:21.179Z,13.90
2019-01-04T20:46:08.826Z,20.20
2019-01-04T20:48:51.313Z,19.97
2019-01-04T20:51:37.481Z,15.43
2019-01-04T20:54:09.501Z,19.00
2019-01-04T20:56:55.798Z,16.57
2019-01-04T20:59:34.851Z,20.33
2019-01-04T21:02:05.045Z,18.13
2019-01-04T21:04:38.215Z,19.77
2019-01-04T21:07:19.983Z,19.13
2019-01-04T21:10:06.014Z,18.50
2019-01-04T21:12:36.090Z,19.00
2019-01-04T21:15:12.406Z,9.80
2019-01-04T21:17:42.563Z,16.40
2019-01-04T21:20:21.547Z,17.83
2019-01-04T21:23:00.346Z,15.20
2019-01-04T21:25:48.193Z,17.30
2019-01-04T21:28:34.268Z,17.80
2019-01-04T21:31:10.637Z,15.70
2019-01-04T21:33:56.742Z,17.07
2019-01-04T21:36:32.676Z,14.87
2019-01-04T21:39:15.184Z,16.27
2019-01-04T21:42:01.575Z,12.70
2019-01-04T21:44:47.803Z,16.13
2019-01-04T21:47:30.290Z,14.57
2019-01-04T21:50:02.978Z,13.73
2019-01-04T21:52:49.264Z,16.57
2019-01-04T21:55:22.235Z,16.83
2019-01-04T21:58:07.403Z,9.27
2019-01-04T22:00:43.726Z,11.07
2019-01-04T22:03:16.979Z,15.97
2019-01-04T22:05:49.519Z,8.03
2019-01-04T22:08:22.552Z,7.30
2019-01-04T22:11:08.575Z,13.20
2019-01-04T22:13:54.941Z,12.27
2019-01-04T22:16:40.771Z,12.57
2019-01-04T22:19:10.835Z,13.50
2019-01-04T22:21:52.627Z,12.53
2019-01-04T22:24:38.455Z,11.20
2019-01-04T22:27:24.843Z,6.60
2019-01-04T22:29:54.907Z,12.47
2019-01-04T22:32:30.663Z,8.93
2019-01-04T22:35:06.687Z,8.73
2019-01-04T22:37:48.479Z,10.50
2019-01-04T22:40:30.130Z,8.93
2019-01-04T22:43:06.302Z,9.17
2019-01-04T22:45:39.294Z,7.87
2019-01-04T22:48:15.446Z,11.20
2019-01-04T22:50:47.996Z,4.00
2019-01-04T22:53:33.852Z,8.60
2019-01-04T22:56:12.915Z,6.37
2019-01-04T22:58:42.980Z,7.67
2019-01-04T23:01:13.132Z,5.27
2019-01-04T23:03:55.029Z,3.93
2019-01-04T23:06:27.875Z,7.93
2019-01-04T23:08:57.947Z,7.33
2019-01-04T23:11:33.787Z,6.20
2019-01-04T23:14:12.299Z,5.03
2019-01-04T23:16:54.263Z,4.60
2019-01-04T23:19:33.420Z,4.97
2019-01-04T23:22:06.033Z,2.47
2019-01-04T23:24:44.862Z,4.43
2019-01-04T23:27:30.907Z,3.40
2019-01-04T23:30:06.929Z,3.57
2019-01-04T23:32:37.012Z,4.17
2019-01-04T23:35:10.052Z,4.20
2019-01-04T23:37:40.267Z,3.83
2019-01-04T23:40:19.164Z,4.67
2019-01-04T23:42:49.287Z,4.73
2019-01-04T23:45:22.199Z,3.40
2019-01-04T23:47:58.133Z,4.80
2019-01-04T23:50:30.928Z,6.53
2019-01-04T23:53:17.295Z,4.60
2019-01-04T23:55:50.346Z,3.90
2019-01-04T23:58:36.176Z,3.70
